Time;durP1;ratioP1;P1;durP2;ratioP2;P2;SDS_P1;SDS_P2;PMS_P1;PMS_P2;Temp;Humidity;BMP_temperature;BMP_pressure;BME280_temperature;BME280_humidity;BME280_pressure;Samples;Min_cycle;Max_cycle;Signal;HPM_P1;HPM_P2
2022/12/11 00:01:43;;;;;;;32.33;19.60;;;;;;;1.78;75.94;99880.44;4991054;28;20904;-74
2022/12/11 00:04:08;;;;;;;32.50;20.37;;;;;;;1.68;76.13;99872.00;5016998;28;20387;-74
2022/12/11 00:06:34;;;;;;;35.88;21.10;;;;;;;1.65;76.14;99875.06;5034826;28;20395;-74
2022/12/11 00:09:00;;;;;;;31.30;20.08;;;;;;;1.66;76.07;99882.03;5033347;28;20413;-73
2022/12/11 00:11:25;;;;;;;32.27;20.97;;;;;;;1.63;75.93;99880.59;5006960;28;20475;-74
2022/12/11 00:13:51;;;;;;;31.60;20.13;;;;;;;1.62;76.01;99880.78;5017350;28;20391;-74
2022/12/11 00:16:16;;;;;;;32.58;19.77;;;;;;;1.60;76.06;99882.84;5030599;28;20402;-74
2022/12/11 00:18:41;;;;;;;34.07;20.27;;;;;;;1.58;75.73;99880.41;5034506;28;20482;-73
2022/12/11 00:21:11;;;;;;;32.97;21.13;;;;;;;1.54;75.66;99888.00;5012253;28;20414;-74
2022/12/11 00:23:37;;;;;;;32.67;21.40;;;;;;;1.52;75.68;99882.00;5031296;28;20387;-73
2022/12/11 00:26:08;;;;;;;37.53;21.47;;;;;;;1.54;75.50;99881.81;5032140;28;20457;-74
2022/12/11 00:28:33;;;;;;;34.72;19.65;;;;;;;1.48;75.43;99871.94;5017843;28;20420;-74
2022/12/11 00:31:01;;;;;;;30.50;19.17;;;;;;;1.43;75.34;99880.53;5004991;28;20414;-73
2022/12/11 00:33:27;;;;;;;33.28;19.58;;;;;;;1.37;75.46;99883.19;5026139;28;20459;-74
2022/12/11 00:35:52;;;;;;;33.00;19.07;;;;;;;1.34;75.60;99881.75;5032974;28;20403;-74
2022/12/11 00:38:20;;;;;;;33.77;20.83;;;;;;;1.31;75.52;99875.97;5032904;28;20406;-73
2022/12/11 00:40:46;;;;;;;32.78;20.38;;;;;;;1.32;76.09;99888.28;5024795;28;20980;-74
2022/12/11 00:43:11;;;;;;;33.88;21.02;;;;;;;1.30;75.40;99887.66;5031445;28;20403;-74
2022/12/11 00:45:40;;;;;;;37.47;22.00;;;;;;;1.29;75.34;99889.50;5032383;28;20461;-74
2022/12/11 00:48:06;;;;;;;32.28;20.83;;;;;;;1.29;75.59;99892.19;5011077;28;20412;-73
2022/12/11 00:50:31;;;;;;;32.92;19.55;;;;;;;1.30;75.17;99896.50;5020835;28;20558;-73
2022/12/11 00:52:57;;;;;;;31.83;18.98;;;;;;;1.31;75.34;99895.50;5030298;28;20482;-73
2022/12/11 00:55:22;;;;;;;31.33;19.50;;;;;;;1.29;75.56;99894.84;5033847;28;20442;-73
2022/12/11 00:57:50;;;;;;;30.17;18.70;;;;;;;1.15;75.24;99893.16;5015931;28;20388;-74
2022/12/11 01:00:15;;;;;;;29.25;18.73;;;;;;;1.16;75.54;99893.97;5017842;28;20732;-73
2022/12/11 01:02:41;;;;;;;33.30;19.70;;;;;;;1.14;75.28;99901.34;5028688;28;20406;-74
2022/12/11 01:05:08;;;;;;;30.27;18.80;;;;;;;1.07;76.05;99895.16;5016464;28;20386;-73
2022/12/11 01:07:34;;;;;;;32.10;20.23;;;;;;;1.04;75.49;99901.72;5033632;28;20399;-74
2022/12/11 01:12:43;;;;;;;35.35;21.63;;;;;;;0.99;76.13;99912.97;4997264;28;20413;-74
2022/12/11 01:15:09;;;;;;;35.87;21.77;;;;;;;0.98;75.34;99907.84;5005140;28;20399;-74
2022/12/11 01:17:40;;;;;;;35.75;21.50;;;;;;;0.93;75.36;99910.25;5013029;28;20388;-75
2022/12/11 01:20:06;;;;;;;37.45;21.38;;;;;;;0.75;76.05;99915.28;5031534;28;20412;-74
2022/12/11 01:22:31;;;;;;;36.20;21.40;;;;;;;0.79;75.81;99919.22;5012671;28;20417;-74
2022/12/11 01:24:58;;;;;;;39.13;22.33;;;;;;;0.92;75.88;99914.75;5033501;28;20379;-74
2022/12/11 01:27:23;;;;;;;39.08;22.38;;;;;;;0.98;75.15;99924.69;5033314;28;20395;-74
2022/12/11 01:29:48;;;;;;;42.47;23.93;;;;;;;0.92;75.34;99929.97;5030313;28;20826;-74
2022/12/11 01:32:14;;;;;;;42.87;23.57;;;;;;;0.84;75.04;99922.09;4997026;28;20406;-74
2022/12/11 01:34:40;;;;;;;40.15;23.55;;;;;;;0.56;75.46;99921.31;5002821;28;20465;-75
2022/12/11 01:37:05;;;;;;;41.00;24.63;;;;;;;0.30;76.25;99924.53;5033201;28;20786;-75
2022/12/11 01:39:31;;;;;;;42.83;24.57;;;;;;;0.08;76.55;99917.59;5024143;28;20402;-74
2022/12/11 01:41:58;;;;;;;45.43;24.53;;;;;;;0.18;76.97;99921.59;5005562;28;20413;-74
2022/12/11 01:44:23;;;;;;;48.17;24.92;;;;;;;0.29;76.76;99925.59;5026694;28;20453;-74
2022/12/11 01:46:48;;;;;;;44.93;25.10;;;;;;;0.43;76.77;99937.97;5033006;28;20403;-74
2022/12/11 01:49:16;;;;;;;46.20;24.25;;;;;;;0.51;76.34;99936.03;5022242;28;20845;-75
2022/12/11 01:51:52;;;;;;;43.80;25.23;;;;;;;0.46;76.49;99935.75;5009842;28;20432;-74
2022/12/11 01:54:21;;;;;;;45.08;26.08;;;;;;;0.52;75.69;99937.69;5001616;28;20401;-74
2022/12/11 01:56:48;;;;;;;48.22;25.80;;;;;;;0.34;76.57;99931.97;5013046;28;20411;-74
2022/12/11 01:59:17;;;;;;;44.08;23.65;;;;;;;0.54;76.72;99937.47;5023287;28;20749;-74
2022/12/11 02:02:02;;;;;;;47.92;25.02;;;;;;;0.67;75.85;99937.56;5027374;28;20424;-74
2022/12/11 02:04:28;;;;;;;47.55;25.15;;;;;;;0.74;75.95;99940.28;5030990;28;25101;-73
2022/12/11 02:06:53;;;;;;;47.73;25.50;;;;;;;0.80;75.94;99942.19;5006882;28;20476;-74
2022/12/11 02:09:28;;;;;;;51.42;25.50;;;;;;;0.79;75.65;99949.34;5017071;28;20561;-74
2022/12/11 02:12:12;;;;;;;46.38;24.38;;;;;;;0.78;75.88;99946.91;5025766;28;20405;-74
2022/12/11 02:14:52;;;;;;;47.88;25.20;;;;;;;0.85;75.67;99945.94;5011787;28;20485;-75
2022/12/11 02:17:26;;;;;;;47.47;24.60;;;;;;;0.87;75.35;99943.88;5032402;28;20765;-74
2022/12/11 02:19:59;;;;;;;46.92;24.75;;;;;;;0.91;75.24;99949.66;5018502;28;20778;-74
2022/12/11 02:22:57;;;;;;;46.80;24.65;;;;;;;0.96;75.10;99949.88;5009043;28;20414;-74
2022/12/11 02:25:35;;;;;;;47.95;25.80;;;;;;;0.98;75.25;99943.34;5015024;28;20430;-74
2022/12/11 02:28:35;;;;;;;49.22;26.02;;;;;;;1.01;75.08;99948.28;5015057;28;20417;-74
2022/12/11 02:31:09;;;;;;;54.03;25.75;;;;;;;0.75;75.86;99944.63;5013066;28;20507;-74
2022/12/11 02:34:00;;;;;;;47.80;25.98;;;;;;;0.84;75.49;99944.28;5011792;28;20442;-74
2022/12/11 02:36:29;;;;;;;50.28;24.67;;;;;;;0.85;75.66;99937.94;5006998;28;20432;-74
2022/12/11 02:38:57;;;;;;;51.03;26.15;;;;;;;0.93;75.46;99942.28;5014208;28;20439;-74
2022/12/11 02:41:25;;;;;;;47.03;25.17;;;;;;;0.95;75.48;99946.41;4997415;28;20895;-74
2022/12/11 02:43:51;;;;;;;51.92;27.33;;;;;;;0.93;75.53;99939.59;5020185;28;20607;-74
2022/12/11 02:46:20;;;;;;;52.63;26.90;;;;;;;0.98;75.81;99932.69;5013882;28;20409;-74
2022/12/11 02:48:49;;;;;;;53.13;27.33;;;;;;;0.99;75.64;99928.13;5018293;28;20449;-74
2022/12/11 02:51:16;;;;;;;54.47;27.25;;;;;;;0.72;75.80;99927.16;5012932;28;20413;-74
2022/12/11 02:53:44;;;;;;;52.28;26.95;;;;;;;0.58;77.16;99924.59;5011249;28;20405;-74
2022/12/11 02:56:17;;;;;;;51.15;26.52;;;;;;;0.77;76.23;99926.56;5019842;28;20394;-74
2022/12/11 02:58:49;;;;;;;52.17;26.77;;;;;;;0.89;76.27;99933.03;5004121;28;20391;-74
2022/12/11 03:01:15;;;;;;;51.55;26.65;;;;;;;0.93;76.04;99921.75;5000598;28;20530;-74
2022/12/11 03:03:41;;;;;;;49.00;26.33;;;;;;;0.81;76.47;99920.66;4993985;28;20882;-74
2022/12/11 03:06:10;;;;;;;49.73;25.70;;;;;;;0.93;76.09;99920.94;5004435;28;20479;-74
2022/12/11 03:08:36;;;;;;;51.58;26.25;;;;;;;0.97;75.82;99924.84;5012036;28;20430;-74
2022/12/11 03:11:01;;;;;;;52.83;26.93;;;;;;;0.89;76.11;99930.38;5007267;28;20433;-74
2022/12/11 03:13:26;;;;;;;51.70;26.73;;;;;;;0.94;76.12;99915.41;5014692;28;20407;-74
2022/12/11 03:16:12;;;;;;;46.33;24.97;;;;;;;0.89;76.00;99917.03;5015057;28;20437;-74
2022/12/11 03:19:32;;;;;;;48.65;26.48;;;;;;;0.85;76.00;99918.44;5016778;28;20801;-74
2022/12/11 03:22:17;;;;;;;46.67;24.65;;;;;;;1.00;75.69;99913.78;5009589;28;20424;-74
2022/12/11 03:24:49;;;;;;;51.33;26.65;;;;;;;0.99;75.60;99918.31;5019445;28;20446;-74
2022/12/11 03:27:35;;;;;;;46.80;26.13;;;;;;;0.69;76.35;99914.19;5003534;28;20404;-74
2022/12/11 03:30:09;;;;;;;47.33;25.30;;;;;;;0.85;77.07;99918.44;5011026;28;25180;-73
2022/12/11 03:32:40;;;;;;;45.70;24.95;;;;;;;0.99;76.37;99912.97;5020752;28;20451;-74
2022/12/11 03:35:13;;;;;;;43.47;23.75;;;;;;;0.86;76.05;99920.06;5012940;28;20433;-74
2022/12/11 03:37:41;;;;;;;44.92;24.30;;;;;;;0.96;76.45;99917.88;5011065;28;20412;-74
2022/12/11 03:40:11;;;;;;;44.37;23.53;;;;;;;0.97;75.85;99924.84;5013351;28;20493;-74
2022/12/11 03:42:39;;;;;;;49.80;27.15;;;;;;;1.02;76.17;99922.44;5004572;28;20428;-75
2022/12/11 03:45:06;;;;;;;55.03;31.33;;;;;;;1.09;76.05;99923.28;5011468;28;20503;-74
2022/12/11 03:47:32;;;;;;;54.65;30.05;;;;;;;1.11;75.57;99923.09;5012048;28;20404;-74
2022/12/11 03:49:59;;;;;;;49.00;25.77;;;;;;;1.14;75.85;99926.19;5010047;28;20413;-75
2022/12/11 03:52:27;;;;;;;44.40;23.98;;;;;;;1.16;75.41;99920.66;5013742;28;21077;-75
2022/12/11 03:54:56;;;;;;;44.03;25.98;;;;;;;1.17;75.50;99919.63;5012088;28;20879;-75
2022/12/11 03:57:26;;;;;;;49.42;27.20;;;;;;;1.20;75.68;99922.72;5011906;28;20897;-74
2022/12/11 03:59:51;;;;;;;45.28;24.40;;;;;;;1.24;75.36;99929.34;5011939;28;20405;-75
2022/12/11 04:02:16;;;;;;;48.90;26.17;;;;;;;1.25;75.47;99927.50;5016969;28;20411;-74
2022/12/11 04:04:42;;;;;;;52.07;26.57;;;;;;;1.22;75.62;99928.69;5015103;28;20472;-74
2022/12/11 04:07:08;;;;;;;52.00;27.35;;;;;;;1.28;75.53;99929.75;5007748;28;20509;-74
2022/12/11 04:09:34;;;;;;;48.58;26.45;;;;;;;1.29;75.27;99931.38;5007496;28;20416;-74
2022/12/11 04:11:59;;;;;;;47.10;25.27;;;;;;;1.31;75.83;99921.34;5005381;28;20418;-75
2022/12/11 04:17:09;;;;;;;49.03;26.15;;;;;;;1.30;76.02;99907.19;5017045;28;20543;-74
2022/12/11 04:25:04;;;;;;;47.10;25.08;;;;;;;1.27;75.50;99907.59;5018449;28;20488;-75
2022/12/11 04:27:47;;;;;;;50.97;25.98;;;;;;;1.29;75.56;99908.19;5005935;28;20437;-74
2022/12/11 04:30:16;;;;;;;46.58;25.02;;;;;;;1.27;75.94;99915.59;4999577;28;20930;-74
2022/12/11 04:32:41;;;;;;;46.55;26.00;;;;;;;1.29;75.94;99916.19;5004721;28;20440;-74
2022/12/11 04:35:09;;;;;;;48.43;25.37;;;;;;;1.33;75.66;99921.97;5010632;28;20451;-74
2022/12/11 04:37:35;;;;;;;50.05;26.33;;;;;;;1.32;75.84;99928.31;5012129;28;20398;-74
2022/12/11 04:40:01;;;;;;;47.13;25.55;;;;;;;1.37;75.63;99928.56;5013283;28;20950;-74
2022/12/11 04:42:27;;;;;;;46.15;24.77;;;;;;;1.36;75.88;99929.59;5012685;28;20424;-74
2022/12/11 04:44:52;;;;;;;45.53;24.80;;;;;;;1.39;75.68;99924.66;5006328;28;20935;-74
2022/12/11 04:47:17;;;;;;;47.27;24.67;;;;;;;1.34;75.64;99926.28;5008942;28;20403;-74
2022/12/11 04:49:43;;;;;;;43.57;23.93;;;;;;;1.34;75.36;99920.97;5017099;28;20942;-74
2022/12/11 04:52:08;;;;;;;45.43;24.53;;;;;;;1.38;75.19;99928.34;5016692;28;20416;-74
2022/12/11 04:54:34;;;;;;;44.63;23.70;;;;;;;1.38;75.47;99922.22;5018511;28;20412;-74
2022/12/11 04:56:59;;;;;;;48.03;24.47;;;;;;;1.33;75.22;99920.13;5019529;28;20412;-74
2022/12/11 04:59:24;;;;;;;46.10;24.57;;;;;;;1.35;75.58;99915.41;5022923;28;20411;-74
2022/12/11 05:01:50;;;;;;;43.50;23.90;;;;;;;1.32;75.58;99906.97;5003170;28;20422;-74
2022/12/11 05:04:15;;;;;;;44.85;24.60;;;;;;;1.32;75.43;99910.47;5020109;28;20415;-74
2022/12/11 05:06:40;;;;;;;46.37;25.53;;;;;;;1.30;75.20;99907.19;5019806;28;20409;-74
2022/12/11 05:09:10;;;;;;;43.03;23.53;;;;;;;1.34;75.47;99910.28;5024450;28;20422;-74
2022/12/11 05:11:36;;;;;;;47.28;25.45;;;;;;;1.32;75.41;99905.13;5007794;28;20821;-73
2022/12/11 05:14:01;;;;;;;47.73;25.33;;;;;;;1.32;75.47;99913.13;5012132;28;20460;-74
2022/12/11 05:16:26;;;;;;;45.40;23.73;;;;;;;1.29;75.32;99907.38;5012728;28;20737;-74
2022/12/11 05:18:51;;;;;;;48.27;24.50;;;;;;;1.29;75.17;99912.69;5006241;28;20433;-74
2022/12/11 05:21:17;;;;;;;41.60;23.67;;;;;;;1.32;74.77;99906.97;4996154;28;20410;-74
2022/12/11 05:23:42;;;;;;;44.97;24.53;;;;;;;1.17;75.16;99909.78;5000593;28;20429;-74
2022/12/11 05:26:12;;;;;;;42.60;24.33;;;;;;;1.24;75.03;99907.97;5006540;28;20479;-74
2022/12/11 05:28:39;;;;;;;43.63;24.08;;;;;;;1.26;75.05;99908.59;4999965;28;20554;-74
2022/12/11 05:31:07;;;;;;;42.00;22.95;;;;;;;1.15;75.32;99898.50;5007581;28;20415;-74
2022/12/11 05:33:33;;;;;;;44.90;24.77;;;;;;;1.17;75.52;99892.94;5005731;28;20919;-74
2022/12/11 05:35:59;;;;;;;45.25;24.05;;;;;;;1.27;75.07;99885.41;5004103;28;20465;-74
2022/12/11 05:38:24;;;;;;;46.20;24.35;;;;;;;1.35;75.02;99883.38;5013943;28;20419;-74
2022/12/11 05:40:57;;;;;;;43.77;24.40;;;;;;;1.33;74.99;99879.25;5016005;28;20411;-75
2022/12/11 05:43:22;;;;;;;44.70;23.17;;;;;;;1.31;74.72;99881.31;5010088;28;20422;-74
2022/12/11 05:45:48;;;;;;;41.77;22.83;;;;;;;1.22;74.98;99885.19;5010601;28;20496;-73
2022/12/11 05:48:13;;;;;;;48.50;24.47;;;;;;;1.21;75.36;99879.03;5008293;28;20542;-74
2022/12/11 05:50:38;;;;;;;42.67;22.87;;;;;;;1.22;74.85;99887.84;5007691;28;20408;-74
2022/12/11 05:53:04;;;;;;;46.10;24.03;;;;;;;1.20;75.33;99885.38;4999044;28;20955;-74
2022/12/11 05:55:32;;;;;;;42.55;22.13;;;;;;;1.20;75.04;99876.53;5009015;28;20406;-74
2022/12/11 05:57:57;;;;;;;42.95;23.40;;;;;;;1.19;75.03;99875.72;5010932;28;20946;-74
2022/12/11 06:00:23;;;;;;;41.72;22.77;;;;;;;1.10;75.37;99874.22;5006882;28;20421;-74
2022/12/11 06:02:48;;;;;;;37.83;22.00;;;;;;;0.97;75.93;99871.50;4996602;28;21059;-74
2022/12/11 06:05:13;;;;;;;41.07;23.23;;;;;;;1.08;75.39;99870.13;5003353;28;20410;-73
2022/12/11 06:07:39;;;;;;;42.55;22.55;;;;;;;1.17;75.35;99871.59;5006582;28;20505;-74
2022/12/11 06:10:05;;;;;;;39.13;22.13;;;;;;;1.14;75.21;99866.66;5001232;28;20417;-74
2022/12/11 06:12:30;;;;;;;44.15;24.08;;;;;;;1.04;75.67;99862.53;5004463;28;20415;-74
2022/12/11 06:14:56;;;;;;;47.88;24.52;;;;;;;1.11;75.57;99859.88;5004178;28;20418;-74
2022/12/11 06:17:21;;;;;;;39.67;22.23;;;;;;;1.15;74.93;99854.97;4999941;28;20409;-74
2022/12/11 06:19:46;;;;;;;48.03;25.37;;;;;;;1.11;74.96;99851.88;5013167;28;20407;-73
2022/12/11 06:22:12;;;;;;;49.40;24.07;;;;;;;1.15;75.37;99861.13;5003568;28;20450;-74
2022/12/11 06:24:37;;;;;;;46.17;24.27;;;;;;;1.14;75.55;99853.31;5006225;28;20406;-74
2022/12/11 06:27:02;;;;;;;43.83;22.73;;;;;;;1.19;75.34;99858.88;5006652;28;20497;-74
2022/12/11 06:29:28;;;;;;;43.08;23.15;;;;;;;1.22;75.33;99853.97;5013405;28;20468;-74
2022/12/11 06:31:53;;;;;;;41.00;21.77;;;;;;;1.23;74.84;99857.44;5016098;28;20875;-74
2022/12/11 06:34:18;;;;;;;44.00;22.00;;;;;;;1.17;74.88;99853.75;5004296;28;20414;-74
2022/12/11 06:36:43;;;;;;;40.97;21.90;;;;;;;1.16;75.03;99860.09;5006216;28;20769;-74
2022/12/11 06:39:09;;;;;;;45.33;23.30;;;;;;;1.19;75.27;99857.03;5016477;28;20451;-74
2022/12/11 06:41:34;;;;;;;39.33;21.27;;;;;;;1.23;75.22;99862.78;5000922;28;20424;-74
2022/12/11 06:43:59;;;;;;;42.87;22.03;;;;;;;1.23;74.99;99852.94;4995005;28;20408;-74
2022/12/11 06:46:24;;;;;;;42.40;22.38;;;;;;;1.21;74.91;99860.34;5004048;28;20433;-74
2022/12/11 06:48:50;;;;;;;39.47;21.30;;;;;;;1.18;75.35;99866.06;5008073;28;20425;-74
2022/12/11 06:51:18;;;;;;;43.17;22.87;;;;;;;1.11;75.38;99867.06;5006689;28;20405;-74
2022/12/11 06:53:51;;;;;;;38.20;20.75;;;;;;;1.11;75.66;99862.53;5005045;28;21310;-75
2022/12/11 06:56:17;;;;;;;38.03;20.73;;;;;;;1.12;75.27;99866.84;5006612;28;20403;-74
2022/12/11 06:58:42;;;;;;;40.87;21.70;;;;;;;1.15;75.01;99863.81;5002585;28;20413;-74
2022/12/11 07:01:19;;;;;;;42.77;22.33;;;;;;;1.11;75.10;99859.06;5011244;28;20814;-75
2022/12/11 07:03:45;;;;;;;40.53;22.23;;;;;;;1.06;75.59;99867.63;4996047;28;20445;-74
2022/12/11 07:06:10;;;;;;;40.83;21.97;;;;;;;1.04;75.28;99872.34;4995718;28;20383;-75
2022/12/11 07:08:35;;;;;;;41.00;22.60;;;;;;;0.99;75.15;99866.78;5024867;28;20766;-74
2022/12/11 07:11:03;;;;;;;41.90;22.37;;;;;;;0.95;75.45;99870.88;4999471;28;20452;-74
2022/12/11 07:13:28;;;;;;;44.75;23.08;;;;;;;1.05;74.96;99874.03;5003961;28;20418;-74
2022/12/11 07:15:53;;;;;;;38.70;21.37;;;;;;;1.01;75.37;99876.25;5011136;28;20397;-74
2022/12/11 07:18:19;;;;;;;41.97;21.90;;;;;;;0.87;75.89;99874.53;5001050;28;20415;-75
2022/12/11 07:20:44;;;;;;;40.03;21.37;;;;;;;0.84;76.02;99874.91;5009892;28;20383;-74
2022/12/11 07:23:10;;;;;;;45.30;22.63;;;;;;;0.89;76.26;99861.81;5019593;28;20906;-74
2022/12/11 07:25:36;;;;;;;38.27;21.00;;;;;;;0.96;76.14;99859.16;5004546;28;20903;-74
2022/12/11 07:28:01;;;;;;;39.72;22.00;;;;;;;0.97;75.52;99864.31;4989816;28;22086;-75
2022/12/11 07:30:26;;;;;;;42.27;22.73;;;;;;;0.94;76.16;99872.72;4992655;28;20906;-74
2022/12/11 07:32:51;;;;;;;43.87;21.50;;;;;;;0.98;75.91;99882.00;4996019;28;20404;-74
2022/12/11 07:35:17;;;;;;;44.43;22.40;;;;;;;1.01;75.90;99878.94;4994044;28;20412;-74
2022/12/11 07:37:43;;;;;;;47.50;24.37;;;;;;;0.83;76.55;99883.94;4989484;28;20835;-74
2022/12/11 07:40:09;;;;;;;47.05;24.27;;;;;;;0.82;76.30;99884.97;4991814;28;20408;-74
2022/12/11 07:42:34;;;;;;;49.60;25.67;;;;;;;0.78;76.95;99878.38;4993217;28;20932;-74
2022/12/11 07:44:59;;;;;;;47.53;24.67;;;;;;;0.88;76.89;99870.03;4992625;28;20438;-74
2022/12/11 07:47:25;;;;;;;45.30;24.23;;;;;;;0.97;76.58;99874.16;4991497;28;20492;-76
2022/12/11 07:49:50;;;;;;;52.17;25.20;;;;;;;1.06;76.54;99870.31;4993890;28;20439;-75
2022/12/11 07:52:15;;;;;;;48.50;25.87;;;;;;;1.09;75.99;99877.91;4989633;28;21196;-74
2022/12/11 07:54:40;;;;;;;47.57;24.30;;;;;;;0.99;76.44;99888.94;4996294;28;20420;-74
2022/12/11 07:57:06;;;;;;;47.42;24.10;;;;;;;1.02;76.46;99882.41;4995797;28;20414;-75
2022/12/11 07:59:31;;;;;;;50.10;26.60;;;;;;;1.17;76.31;99884.94;4989768;28;20415;-74
2022/12/11 08:01:56;;;;;;;47.10;24.47;;;;;;;1.19;76.19;99885.56;4993483;28;20416;-75
2022/12/11 08:04:21;;;;;;;47.90;23.50;;;;;;;1.15;76.58;99889.66;4993416;28;20464;-75
2022/12/11 08:06:47;;;;;;;47.55;24.38;;;;;;;1.14;76.54;99886.16;4993957;28;20545;-75
2022/12/11 08:09:13;;;;;;;49.50;24.80;;;;;;;1.14;76.27;99890.69;4994728;28;20509;-75
2022/12/11 08:11:39;;;;;;;46.33;24.20;;;;;;;1.14;76.41;99888.84;4993953;28;20489;-75
2022/12/11 08:14:05;;;;;;;46.47;25.53;;;;;;;1.03;76.74;99895.53;4991589;28;20552;-74
2022/12/11 08:16:31;;;;;;;51.55;25.15;;;;;;;1.15;76.52;99892.34;4996391;28;20478;-74
2022/12/11 08:18:58;;;;;;;47.97;25.05;;;;;;;1.20;76.56;99889.88;4996004;28;20500;-74
2022/12/11 08:21:25;;;;;;;47.03;25.08;;;;;;;1.25;76.23;99890.91;5004035;28;20412;-74
2022/12/11 08:23:52;;;;;;;44.75;23.35;;;;;;;1.27;76.06;99896.06;5001671;28;20434;-74
2022/12/11 08:26:21;;;;;;;46.15;24.27;;;;;;;1.27;76.15;99898.75;5001512;28;20531;-74
2022/12/11 08:28:46;;;;;;;45.63;23.27;;;;;;;1.28;76.12;99903.06;4998204;28;20468;-75
2022/12/11 08:31:13;;;;;;;49.77;25.10;;;;;;;1.27;76.20;99896.91;5002346;28;20519;-74
2022/12/11 08:33:40;;;;;;;45.83;24.98;;;;;;;1.31;76.49;99895.50;5013623;28;20397;-74
2022/12/11 08:36:08;;;;;;;45.67;22.92;;;;;;;1.36;76.26;99893.03;5004038;28;20413;-75
2022/12/11 08:38:33;;;;;;;46.20;23.48;;;;;;;1.36;75.96;99889.53;5002624;28;20424;-74
2022/12/11 08:41:07;;;;;;;45.03;24.13;;;;;;;1.30;76.18;99891.16;4995296;28;20952;-74
2022/12/11 08:43:33;;;;;;;46.92;24.65;;;;;;;1.32;76.11;99893.63;4995318;28;20418;-75
2022/12/11 08:45:58;;;;;;;46.72;23.15;;;;;;;1.29;76.27;99886.00;5001931;28;20426;-75
2022/12/11 08:48:23;;;;;;;43.60;23.90;;;;;;;1.25;76.36;99882.91;4993565;28;20428;-74
2022/12/11 08:50:48;;;;;;;46.47;23.63;;;;;;;1.32;76.26;99880.28;5001140;28;21123;-74
2022/12/11 08:53:14;;;;;;;42.58;23.17;;;;;;;1.32;76.37;99880.28;5009551;28;20768;-75
2022/12/11 08:55:39;;;;;;;43.00;23.53;;;;;;;1.38;76.42;99877.63;5003671;28;20447;-75
2022/12/11 08:58:04;;;;;;;46.17;23.73;;;;;;;1.43;76.26;99869.03;5013172;28;20413;-76
2022/12/11 09:00:30;;;;;;;46.03;23.43;;;;;;;1.49;75.77;99873.56;5009386;28;20408;-74
2022/12/11 09:02:55;;;;;;;44.90;22.88;;;;;;;1.46;75.91;99872.13;5009541;28;20863;-74
2022/12/11 09:05:20;;;;;;;42.30;22.53;;;;;;;1.48;75.80;99867.41;5024980;28;20391;-74
2022/12/11 09:07:45;;;;;;;43.83;22.53;;;;;;;1.38;76.22;99866.94;5028705;28;20860;-74
2022/12/11 09:10:11;;;;;;;43.55;22.52;;;;;;;1.36;76.56;99865.50;4999971;28;20470;-74
2022/12/11 09:12:36;;;;;;;41.23;22.23;;;;;;;1.52;76.21;99867.81;5020981;28;20427;-75
2022/12/11 09:15:03;;;;;;;45.17;23.50;;;;;;;1.63;75.45;99861.09;5022198;28;20445;-74
2022/12/11 09:17:28;;;;;;;43.60;22.52;;;;;;;1.65;75.83;99862.53;5009276;28;20486;-75
2022/12/11 09:19:53;;;;;;;41.87;21.50;;;;;;;1.72;75.62;99860.69;5019405;28;20875;-74
2022/12/11 09:22:19;;;;;;;41.37;22.07;;;;;;;1.67;75.15;99857.00;5025632;28;20409;-74
2022/12/11 09:24:45;;;;;;;46.10;23.47;;;;;;;1.64;75.59;99857.41;5027117;28;20399;-74
2022/12/11 09:27:10;;;;;;;42.30;21.65;;;;;;;1.66;75.49;99858.84;5013881;28;20413;-76
2022/12/11 09:29:36;;;;;;;44.73;22.33;;;;;;;1.75;75.23;99856.78;5002195;28;20471;-75
2022/12/11 09:32:02;;;;;;;45.63;23.13;;;;;;;1.78;74.72;99864.41;5005921;28;20783;-74
2022/12/11 09:34:27;;;;;;;45.37;22.47;;;;;;;1.70;75.26;99864.59;5001212;28;20410;-74
2022/12/11 09:36:52;;;;;;;40.70;21.67;;;;;;;1.77;75.19;99860.09;5009998;28;20410;-74
2022/12/11 09:39:17;;;;;;;45.92;23.27;;;;;;;1.82;74.58;99858.44;5025728;28;20401;-74
2022/12/11 09:41:52;;;;;;;45.00;22.70;;;;;;;1.87;74.37;99849.84;5013430;28;20925;-74
2022/12/11 09:44:20;;;;;;;43.05;23.40;;;;;;;1.83;74.87;99862.78;5022202;28;20449;-74
2022/12/11 09:46:47;;;;;;;46.08;23.60;;;;;;;1.90;75.01;99854.78;5015386;28;20411;-74
2022/12/11 09:49:23;;;;;;;45.42;23.27;;;;;;;2.05;74.70;99855.41;4993643;28;20433;-74
2022/12/11 09:52:05;;;;;;;43.60;21.87;;;;;;;2.12;74.08;99850.88;4995892;28;20538;-73
2022/12/11 09:54:31;;;;;;;44.88;23.13;;;;;;;2.16;74.24;99849.44;5032846;28;20754;-74
2022/12/11 09:57:47;;;;;;;44.55;22.30;;;;;;;2.28;73.88;99841.63;5022758;28;20410;-74
2022/12/11 10:00:35;;;;;;;41.30;21.88;;;;;;;2.36;73.65;99847.59;4993340;28;20424;-74
2022/12/11 10:03:21;;;;;;;42.65;22.75;;;;;;;2.40;73.64;99840.00;5014987;28;20398;-73
2022/12/11 10:05:58;;;;;;;44.38;23.42;;;;;;;2.44;73.45;99842.03;5007461;28;20412;-74
2022/12/11 10:08:52;;;;;;;44.13;23.02;;;;;;;2.43;73.28;99834.22;5002649;28;20441;-74
2022/12/11 10:11:38;;;;;;;42.63;22.37;;;;;;;2.46;73.42;99831.97;5006227;28;20401;-74
2022/12/11 10:14:15;;;;;;;43.47;23.48;;;;;;;2.44;73.63;99834.00;5003684;28;20424;-74
2022/12/11 10:16:48;;;;;;;43.38;22.30;;;;;;;2.49;73.25;99828.88;5011606;28;20516;-74
2022/12/11 10:19:26;;;;;;;44.70;22.73;;;;;;;2.63;73.19;99819.78;5017671;28;20495;-73
2022/12/11 10:21:52;;;;;;;46.40;22.88;;;;;;;2.69;72.76;99819.97;5011233;28;20493;-74
2022/12/11 10:24:35;;;;;;;43.30;22.20;;;;;;;2.68;72.85;99815.66;5005242;28;20424;-74
2022/12/11 10:27:14;;;;;;;46.30;23.38;;;;;;;2.77;72.69;99807.19;5019258;28;20836;-74
2022/12/11 10:29:39;;;;;;;46.17;23.70;;;;;;;2.83;72.74;99810.91;5007487;28;20424;-74
2022/12/11 10:32:33;;;;;;;43.87;24.77;;;;;;;2.88;72.54;99805.72;5004532;28;20761;-74
2022/12/11 10:35:04;;;;;;;44.22;23.23;;;;;;;2.94;72.19;99800.34;5007066;28;20418;-73
2022/12/11 10:37:29;;;;;;;45.08;23.80;;;;;;;2.92;72.10;99794.41;5015488;28;20465;-74
2022/12/11 10:39:54;;;;;;;44.63;23.80;;;;;;;2.88;72.35;99797.69;5004190;28;20402;-74
2022/12/11 10:42:21;;;;;;;43.67;23.20;;;;;;;2.88;72.16;99795.84;5004780;28;20917;-74
2022/12/11 10:45:02;;;;;;;41.60;22.30;;;;;;;2.84;72.03;99791.09;5005951;28;20421;-74
2022/12/11 10:47:28;;;;;;;43.75;23.38;;;;;;;2.71;72.63;99791.97;5011861;28;20411;-74
2022/12/11 10:49:57;;;;;;;44.42;24.10;;;;;;;2.70;72.75;99787.66;5001315;28;20414;-74
2022/12/11 10:52:26;;;;;;;47.63;24.27;;;;;;;2.73;72.61;99789.94;5011372;28;20437;-74
2022/12/11 10:54:58;;;;;;;45.17;26.75;;;;;;;2.54;73.21;99796.94;5010301;28;20412;-74
2022/12/11 10:57:30;;;;;;;46.63;24.77;;;;;;;2.63;73.44;99792.22;5013023;28;20889;-74
2022/12/11 10:59:56;;;;;;;43.65;24.10;;;;;;;2.60;73.26;99785.41;5003503;28;20876;-74
2022/12/11 11:02:31;;;;;;;51.67;27.15;;;;;;;2.64;73.01;99785.81;5011683;28;20425;-74
2022/12/11 11:04:58;;;;;;;53.95;28.80;;;;;;;2.67;72.75;99784.59;5007836;28;20449;-73
2022/12/11 11:07:28;;;;;;;48.90;25.80;;;;;;;2.72;72.36;99782.09;5007174;28;20464;-73
2022/12/11 11:10:13;;;;;;;50.20;25.70;;;;;;;2.72;72.36;99779.44;5007859;28;20479;-73
2022/12/11 11:12:42;;;;;;;44.30;24.43;;;;;;;2.78;72.29;99771.38;5016091;28;20491;-73
2022/12/11 11:15:26;;;;;;;41.17;23.00;;;;;;;2.94;72.02;99770.91;5011201;28;20431;-74
2022/12/11 11:17:54;;;;;;;41.13;22.95;;;;;;;2.91;71.75;99768.66;5002772;28;20489;-74
2022/12/11 11:20:24;;;;;;;41.80;23.15;;;;;;;2.90;71.65;99767.00;5014135;28;20414;-74
2022/12/11 11:22:53;;;;;;;44.97;24.13;;;;;;;2.90;71.86;99766.19;5006335;28;20406;-74
2022/12/11 11:25:21;;;;;;;43.57;23.77;;;;;;;2.92;71.57;99769.47;5014485;28;20553;-74
2022/12/11 11:28:11;;;;;;;43.83;24.20;;;;;;;2.91;71.39;99763.31;5012193;28;20428;-73
2022/12/11 11:30:39;;;;;;;43.90;24.25;;;;;;;2.90;71.53;99761.66;4996361;28;20414;-74
2022/12/11 11:33:12;;;;;;;43.30;23.73;;;;;;;2.92;71.66;99764.97;5007161;28;20418;-74
2022/12/11 11:35:38;;;;;;;40.35;22.75;;;;;;;2.93;71.48;99758.53;5008373;28;20406;-75
2022/12/11 11:38:16;;;;;;;44.00;23.80;;;;;;;3.00;71.53;99759.34;5008705;28;20470;-76
2022/12/11 11:41:09;;;;;;;47.95;25.38;;;;;;;3.03;71.37;99761.59;5012618;28;20420;-74
2022/12/11 11:43:37;;;;;;;42.17;23.15;;;;;;;2.99;71.37;99762.25;4999652;28;20556;-74